Time;durP1;ratioP1;P1;durP2;ratioP2;P2;SDS_P1;SDS_P2;PMS_P1;PMS_P2;Temp;Humidity;BMP_temperature;BMP_pressure;BME280_temperature;BME280_humidity;BME280_pressure;Samples;Min_cycle;Max_cycle;Signal;HPM_P1;HPM_P2
2021/05/27 00:00:29;;;;;;;0.70;0.50;;;11.90;99.90;;;;;;5032606;28;20801;-78
2021/05/27 00:02:54;;;;;;;0.70;0.50;;;11.80;99.90;;;;;;5020224;28;20453;-80
2021/05/27 00:05:22;;;;;;;0.70;0.50;;;11.70;99.90;;;;;;5039664;28;20519;-80
2021/05/27 00:07:48;;;;;;;0.70;0.50;;;11.80;99.90;;;;;;5036361;28;20477;-80
2021/05/27 00:10:17;;;;;;;0.70;0.50;;;11.70;99.90;;;;;;5016724;28;20507;-79
2021/05/27 00:12:43;;;;;;;0.70;0.50;;;11.70;99.90;;;;;;5037452;28;20435;-79
2021/05/27 00:15:10;;;;;;;0.70;0.50;;;11.80;99.90;;;;;;5018861;28;20472;-79
2021/05/27 00:17:36;;;;;;;0.70;0.50;;;11.80;99.90;;;;;;5041539;28;20575;-80
2021/05/27 00:20:04;;;;;;;0.70;0.50;;;11.80;99.90;;;;;;5020930;28;20435;-80
2021/05/27 00:22:30;;;;;;;1.07;0.80;;;11.80;99.90;;;;;;5030009;28;20203;-78
2021/05/27 00:24:55;;;;;;;0.70;0.50;;;11.80;99.90;;;;;;5023715;28;20444;-79
2021/05/27 00:27:22;;;;;;;0.70;0.50;;;11.70;99.90;;;;;;5027022;28;20211;-79
2021/05/27 00:29:48;;;;;;;1.33;1.23;;;11.70;99.90;;;;;;5020256;28;20615;-79
2021/05/27 00:32:14;;;;;;;0.70;0.50;;;11.80;99.90;;;;;;5033846;28;20434;-79
2021/05/27 00:34:39;;;;;;;0.70;0.50;;;11.80;99.90;;;;;;5019039;28;20176;-80
2021/05/27 00:37:05;;;;;;;0.70;0.50;;;11.70;99.90;;;;;;5033290;28;20457;-78
2021/05/27 00:39:30;;;;;;;0.80;0.60;;;11.70;99.90;;;;;;5037754;28;20642;-79
2021/05/27 00:41:57;;;;;;;0.70;0.50;;;11.60;99.90;;;;;;5028391;28;20194;-79
2021/05/27 00:44:28;;;;;;;0.87;0.87;;;11.60;99.90;;;;;;5043177;28;20203;-79
2021/05/27 00:46:56;;;;;;;0.70;0.50;;;11.50;99.90;;;;;;5042133;28;20470;-79
2021/05/27 00:49:23;;;;;;;0.70;0.50;;;11.60;99.90;;;;;;5027171;28;20419;-80
2021/05/27 00:51:49;;;;;;;0.70;0.50;;;11.60;99.90;;;;;;5041670;28;20438;-80
2021/05/27 00:54:17;;;;;;;0.70;0.50;;;11.60;99.90;;;;;;5042024;28;20446;-79
2021/05/27 00:56:43;;;;;;;0.97;0.97;;;11.70;99.90;;;;;;5026774;28;20856;-80
2021/05/27 00:59:09;;;;;;;0.70;0.50;;;11.60;99.90;;;;;;5042725;28;20441;-80
2021/05/27 01:01:35;;;;;;;0.70;0.50;;;11.60;99.90;;;;;;5042425;28;20180;-78
2021/05/27 01:04:01;;;;;;;0.70;0.50;;;11.60;99.90;;;;;;5042647;28;20552;-79
2021/05/27 01:06:26;;;;;;;0.70;0.57;;;11.60;99.90;;;;;;5024760;28;20477;-80
2021/05/27 01:08:52;;;;;;;0.70;0.50;;;11.60;99.90;;;;;;5023971;28;20527;-79
2021/05/27 01:11:18;;;;;;;0.70;0.60;;;11.70;99.90;;;;;;5033554;28;20176;-76
2021/05/27 01:13:44;;;;;;;0.70;0.50;;;11.70;99.90;;;;;;5016650;28;20179;-80
2021/05/27 01:16:20;;;;;;;0.70;0.50;;;11.70;99.90;;;;;;5024454;28;20798;-80
2021/05/27 01:18:46;;;;;;;0.70;0.50;;;11.70;99.90;;;;;;5027903;28;20433;-80
2021/05/27 01:21:12;;;;;;;0.70;0.50;;;11.80;99.90;;;;;;5025282;28;20957;-81
2021/05/27 01:23:38;;;;;;;0.70;0.50;;;11.80;99.90;;;;;;5050265;28;20206;-79
2021/05/27 01:26:06;;;;;;;0.70;0.50;;;11.80;99.90;;;;;;5036704;28;20427;-78
2021/05/27 01:28:34;;;;;;;0.80;0.73;;;11.80;99.90;;;;;;5048208;28;20419;-79
2021/05/27 01:31:06;;;;;;;0.70;0.50;;;11.70;99.90;;;;;;5055541;28;20418;-79
2021/05/27 01:33:32;;;;;;;0.70;0.50;;;11.80;99.90;;;;;;5035310;28;20419;-79
2021/05/27 01:36:00;;;;;;;0.70;0.50;;;11.70;99.90;;;;;;5037067;28;20431;-79
2021/05/27 01:38:27;;;;;;;0.70;0.50;;;11.70;99.90;;;;;;5046367;28;20242;-80
2021/05/27 01:40:55;;;;;;;0.70;0.50;;;11.70;99.90;;;;;;5030094;28;20422;-80
2021/05/27 01:43:22;;;;;;;0.70;0.50;;;11.70;99.90;;;;;;5047872;28;20469;-78
2021/05/27 01:45:48;;;;;;;0.70;0.50;;;11.50;99.90;;;;;;5023439;28;20439;-80
2021/05/27 01:48:14;;;;;;;0.70;0.50;;;11.50;99.90;;;;;;5032303;28;20493;-79
2021/05/27 01:50:40;;;;;;;1.07;0.97;;;11.50;99.90;;;;;;5018255;28;20434;-79
2021/05/27 01:53:07;;;;;;;0.70;0.50;;;11.50;99.90;;;;;;5032493;28;20622;-79
2021/05/27 01:55:33;;;;;;;0.70;0.50;;;11.50;99.90;;;;;;5019680;28;20457;-81
2021/05/27 01:57:59;;;;;;;0.70;0.50;;;11.40;99.90;;;;;;5032016;28;20458;-80
2021/05/27 02:00:27;;;;;;;0.70;0.50;;;11.40;99.90;;;;;;5016130;28;20800;-79
2021/05/27 02:02:52;;;;;;;0.70;0.50;;;11.40;99.90;;;;;;5018219;28;20469;-78
2021/05/27 02:05:18;;;;;;;0.70;0.50;;;11.30;99.90;;;;;;5042402;28;20419;-79
2021/05/27 02:07:43;;;;;;;0.70;0.50;;;11.30;99.90;;;;;;5040507;28;20708;-79
2021/05/27 02:10:10;;;;;;;0.70;0.50;;;11.40;99.90;;;;;;5039949;28;20188;-79
2021/05/27 02:12:36;;;;;;;0.70;0.50;;;11.30;99.90;;;;;;5041425;28;20532;-79
2021/05/27 02:15:02;;;;;;;0.70;0.50;;;11.40;99.90;;;;;;5028304;28;20435;-79
2021/05/27 02:17:28;;;;;;;0.70;0.50;;;11.40;99.90;;;;;;5036632;28;20219;-79
2021/05/27 02:19:54;;;;;;;0.70;0.50;;;11.40;99.90;;;;;;5019142;28;20434;-78
2021/05/27 02:22:19;;;;;;;3.80;1.17;;;11.50;99.90;;;;;;5035338;28;20203;-80
2021/05/27 02:24:45;;;;;;;0.70;0.50;;;11.40;99.90;;;;;;5022392;28;20439;-80
2021/05/27 02:27:10;;;;;;;0.70;0.60;;;11.40;99.90;;;;;;5024993;28;20232;-80
2021/05/27 02:29:36;;;;;;;0.70;0.50;;;11.40;99.90;;;;;;5031346;28;20626;-79
2021/05/27 02:32:02;;;;;;;0.70;0.50;;;11.40;99.90;;;;;;5035011;28;20340;-79
2021/05/27 02:34:27;;;;;;;0.70;0.50;;;11.40;99.90;;;;;;5037828;28;20183;-80
2021/05/27 02:36:53;;;;;;;0.70;0.50;;;11.30;99.90;;;;;;5023960;28;20207;-80
2021/05/27 02:39:19;;;;;;;0.70;0.50;;;11.40;99.90;;;;;;5034863;28;20184;-79
2021/05/27 02:41:44;;;;;;;0.70;0.50;;;11.30;99.90;;;;;;5024181;28;20183;-78
2021/05/27 02:44:10;;;;;;;0.70;0.50;;;11.40;99.90;;;;;;5015783;28;20212;-78
2021/05/27 02:46:35;;;;;;;0.70;0.50;;;11.40;99.90;;;;;;5011738;28;20227;-78
2021/05/27 02:49:01;;;;;;;0.70;0.50;;;11.30;99.90;;;;;;5013400;28;20246;-79
2021/05/27 02:51:27;;;;;;;0.70;0.50;;;11.40;99.90;;;;;;5031955;28;20187;-79
2021/05/27 02:53:52;;;;;;;1.53;0.87;;;11.50;99.90;;;;;;5041825;28;20539;-79
2021/05/27 02:56:19;;;;;;;0.70;0.50;;;11.40;99.90;;;;;;5025547;28;20199;-80
2021/05/27 02:58:44;;;;;;;0.70;0.50;;;11.50;99.90;;;;;;5040539;28;20188;-79
2021/05/27 03:01:10;;;;;;;0.70;0.50;;;11.50;99.90;;;;;;5023101;28;20450;-79
2021/05/27 03:03:36;;;;;;;0.70;0.50;;;11.50;99.90;;;;;;5038816;28;20202;-79
2021/05/27 03:06:02;;;;;;;0.70;0.50;;;11.50;99.90;;;;;;5043358;28;20499;-79
2021/05/27 03:08:28;;;;;;;0.70;0.50;;;11.50;99.90;;;;;;5041018;28;20226;-79
2021/05/27 03:10:54;;;;;;;0.70;0.50;;;11.60;99.90;;;;;;5039991;28;20426;-79
2021/05/27 03:13:20;;;;;;;0.70;0.50;;;11.60;99.90;;;;;;5041675;28;20426;-79
2021/05/27 03:15:45;;;;;;;0.70;0.50;;;11.50;99.90;;;;;;5028405;28;20183;-79
2021/05/27 03:18:11;;;;;;;0.70;0.50;;;11.60;99.90;;;;;;5048368;28;20198;-79
2021/05/27 03:20:38;;;;;;;1.27;1.17;;;11.50;99.90;;;;;;5046329;28;20172;-78
2021/05/27 03:23:05;;;;;;;0.70;0.50;;;11.50;99.90;;;;;;5038830;28;20573;-79
2021/05/27 03:25:31;;;;;;;0.70;0.50;;;11.50;99.90;;;;;;5038227;28;20510;-77
2021/05/27 03:27:57;;;;;;;0.70;0.50;;;11.40;99.90;;;;;;5046553;28;20484;-77
2021/05/27 03:30:23;;;;;;;1.10;0.83;;;11.40;99.90;;;;;;5030601;28;20406;-77
2021/05/27 03:32:49;;;;;;;0.80;0.80;;;11.40;99.90;;;;;;5046882;28;20258;-77
2021/05/27 03:35:14;;;;;;;0.70;0.50;;;11.40;99.90;;;;;;5045470;28;20446;-77
2021/05/27 03:37:41;;;;;;;1.33;0.97;;;11.40;99.90;;;;;;5011926;28;20549;-76
2021/05/27 03:40:15;;;;;;;0.70;0.50;;;11.50;99.90;;;;;;5026814;28;20179;-76
2021/05/27 03:42:43;;;;;;;0.70;0.50;;;11.60;99.90;;;;;;5025540;28;20468;-77
2021/05/27 03:45:17;;;;;;;0.90;0.80;;;11.50;99.90;;;;;;5018979;28;20458;-77
2021/05/27 03:47:43;;;;;;;0.70;0.50;;;11.40;99.90;;;;;;5028565;28;20458;-77
2021/05/27 03:50:10;;;;;;;0.70;0.50;;;11.50;99.90;;;;;;5014825;28;20435;-76
2021/05/27 03:52:37;;;;;;;0.70;0.50;;;11.40;99.90;;;;;;5028994;28;20434;-77
2021/05/27 03:55:05;;;;;;;0.70;0.50;;;11.50;99.90;;;;;;5013822;28;20441;-77
2021/05/27 03:57:30;;;;;;;0.70;0.50;;;11.40;99.90;;;;;;5014400;28;20451;-77
2021/05/27 04:02:44;;;;;;;0.70;0.50;;;11.40;99.90;;;;;;5015772;28;20573;-79
2021/05/27 04:07:55;;;;;;;0.70;0.50;;;11.50;99.90;;;;;;5028231;28;20459;-79
2021/05/27 04:10:21;;;;;;;1.27;1.17;;;11.50;99.90;;;;;;5042636;28;20426;-79
2021/05/27 04:12:46;;;;;;;0.70;0.50;;;11.50;99.90;;;;;;5043562;28;20187;-79
2021/05/27 04:17:54;;;;;;;0.70;0.50;;;11.50;99.90;;;;;;5026189;28;20461;-79
2021/05/27 04:20:21;;;;;;;0.70;0.50;;;11.50;99.90;;;;;;5040699;28;20449;-79
2021/05/27 04:22:48;;;;;;;18.43;2.70;;;11.60;99.90;;;;;;5040199;28;20462;-79
2021/05/27 04:25:16;;;;;;;0.70;0.50;;;11.70;99.90;;;;;;5026465;28;20434;-79
2021/05/27 04:27:43;;;;;;;0.70;0.50;;;11.70;99.90;;;;;;5042460;28;20490;-79
2021/05/27 04:30:14;;;;;;;0.70;0.50;;;11.70;99.90;;;;;;5028780;28;20434;-79
2021/05/27 04:33:07;;;;;;;0.70;0.50;;;11.70;99.90;;;;;;5043996;28;20442;-79
2021/05/27 04:35:35;;;;;;;0.70;0.50;;;11.80;99.90;;;;;;5028528;28;20419;-79
2021/05/27 04:38:12;;;;;;;0.70;0.50;;;11.70;99.90;;;;;;5041246;28;20466;-79
2021/05/27 04:40:43;;;;;;;0.70;0.50;;;11.70;99.90;;;;;;5041833;28;20514;-79
2021/05/27 04:43:09;;;;;;;0.70;0.50;;;11.70;99.90;;;;;;5041100;28;20462;-80
2021/05/27 04:45:35;;;;;;;3.90;1.00;;;11.60;99.90;;;;;;5029223;28;20436;-79
2021/05/27 04:48:04;;;;;;;0.70;0.60;;;11.70;99.90;;;;;;5035232;28;20477;-79
2021/05/27 04:50:30;;;;;;;0.70;0.50;;;11.70;99.90;;;;;;5026115;28;20640;-79
2021/05/27 04:52:56;;;;;;;0.70;0.50;;;11.70;99.90;;;;;;5042132;28;20974;-79
2021/05/27 04:55:21;;;;;;;0.70;0.50;;;11.60;99.90;;;;;;5042187;28;20454;-79
2021/05/27 04:57:47;;;;;;;0.70;0.50;;;11.70;99.90;;;;;;5051298;28;20198;-79
2021/05/27 05:00:20;;;;;;;0.70;0.60;;;11.70;99.90;;;;;;5056586;28;20664;-79
2021/05/27 05:02:46;;;;;;;0.70;0.50;;;11.70;99.90;;;;;;5057436;28;20896;-79
2021/05/27 05:05:13;;;;;;;1.23;1.13;;;11.70;99.90;;;;;;5044497;28;20430;-79
2021/05/27 05:07:40;;;;;;;0.70;0.50;;;11.60;99.90;;;;;;5041410;28;20195;-78
2021/05/27 05:10:12;;;;;;;0.70;0.50;;;11.70;99.90;;;;;;5040333;28;20430;-79
2021/05/27 05:12:49;;;;;;;0.70;0.50;;;11.60;99.90;;;;;;5041248;28;20437;-79
2021/05/27 05:15:26;;;;;;;0.70;0.50;;;11.70;99.90;;;;;;5025940;28;20427;-79
2021/05/27 05:18:01;;;;;;;0.70;0.57;;;11.60;99.90;;;;;;5042333;28;20453;-79
2021/05/27 05:20:31;;;;;;;0.70;0.50;;;11.60;99.90;;;;;;5041323;28;20453;-79
2021/05/27 05:22:57;;;;;;;0.70;0.50;;;11.50;99.90;;;;;;5041589;28;20464;-79
2021/05/27 05:25:24;;;;;;;0.70;0.50;;;11.60;99.90;;;;;;5042348;28;20429;-79
2021/05/27 05:27:50;;;;;;;1.43;0.83;;;11.60;99.90;;;;;;5041775;28;20461;-79
2021/05/27 05:30:17;;;;;;;0.70;0.50;;;11.60;99.90;;;;;;5040605;28;20441;-79
2021/05/27 05:32:44;;;;;;;0.70;0.50;;;11.60;99.90;;;;;;5039620;28;20533;-79
2021/05/27 05:35:12;;;;;;;0.70;0.50;;;11.50;99.90;;;;;;5024396;28;20431;-79
2021/05/27 05:37:38;;;;;;;0.70;0.50;;;11.60;99.90;;;;;;5034100;28;20438;-79
2021/05/27 05:40:06;;;;;;;0.70;0.50;;;11.50;99.90;;;;;;5041609;28;20408;-79
2021/05/27 05:42:31;;;;;;;0.70;0.70;;;11.50;99.90;;;;;;5040470;28;20435;-79
2021/05/27 05:44:57;;;;;;;0.70;0.60;;;11.60;99.90;;;;;;5040893;28;20436;-79
2021/05/27 05:47:23;;;;;;;0.70;0.50;;;11.70;99.90;;;;;;5041161;28;20258;-79
2021/05/27 05:49:48;;;;;;;0.70;0.50;;;11.60;99.90;;;;;;5040326;28;20183;-79
2021/05/27 05:52:14;;;;;;;0.70;0.50;;;11.60;99.90;;;;;;5025165;28;20231;-79
2021/05/27 05:54:40;;;;;;;0.70;0.57;;;11.60;99.90;;;;;;5023136;28;20186;-79
2021/05/27 05:57:06;;;;;;;0.70;0.50;;;11.70;99.90;;;;;;5023958;28;20218;-79
2021/05/27 05:59:32;;;;;;;0.70;0.50;;;11.70;99.90;;;;;;5025400;28;20442;-79
2021/05/27 06:01:57;;;;;;;0.70;0.50;;;11.70;99.90;;;;;;5022645;28;20176;-79
2021/05/27 06:04:23;;;;;;;0.70;0.50;;;11.60;99.90;;;;;;5038871;28;20272;-79
2021/05/27 06:06:51;;;;;;;0.70;0.60;;;11.70;99.90;;;;;;5039904;28;20200;-79
2021/05/27 06:09:17;;;;;;;2.40;2.30;;;11.70;99.90;;;;;;5039123;28;20267;-79
2021/05/27 06:11:43;;;;;;;0.70;0.50;;;11.80;99.90;;;;;;5040320;28;20438;-79
2021/05/27 06:14:09;;;;;;;0.70;0.50;;;11.80;99.90;;;;;;5017679;28;20466;-78
2021/05/27 06:16:34;;;;;;;0.70;0.60;;;11.90;99.90;;;;;;5034316;28;20462;-78
2021/05/27 06:19:00;;;;;;;0.70;0.50;;;11.90;99.90;;;;;;5032639;28;20187;-79
2021/05/27 06:21:26;;;;;;;0.70;0.50;;;12.00;99.90;;;;;;5022065;28;20223;-80
2021/05/27 06:23:51;;;;;;;0.70;0.50;;;12.10;99.90;;;;;;5023452;28;20207;-80
2021/05/27 06:26:17;;;;;;;0.70;0.50;;;12.00;99.90;;;;;;5022304;28;20192;-79
2021/05/27 06:28:43;;;;;;;0.70;0.60;;;12.10;99.90;;;;;;5034680;28;20172;-78
2021/05/27 06:31:08;;;;;;;0.70;0.50;;;12.10;99.90;;;;;;5017048;28;20175;-79
2021/05/27 06:33:35;;;;;;;0.70;0.50;;;12.10;99.90;;;;;;5039236;28;20238;-79
2021/05/27 06:36:01;;;;;;;0.70;0.50;;;12.00;99.90;;;;;;5039085;28;20183;-79
2021/05/27 06:38:26;;;;;;;0.70;0.50;;;12.00;99.90;;;;;;5023755;28;20531;-79
2021/05/27 06:40:52;;;;;;;0.70;0.50;;;12.00;99.90;;;;;;5037667;28;20206;-78
2021/05/27 06:43:17;;;;;;;0.70;0.50;;;12.10;99.90;;;;;;5038239;28;20237;-79
2021/05/27 06:45:43;;;;;;;0.87;0.70;;;12.10;99.90;;;;;;5038577;28;20195;-79
2021/05/27 06:48:09;;;;;;;1.80;1.70;;;12.20;99.90;;;;;;5038423;28;20203;-79
2021/05/27 06:50:39;;;;;;;0.70;0.50;;;12.30;99.90;;;;;;5021769;28;20645;-79
2021/05/27 06:53:08;;;;;;;0.70;0.60;;;12.30;99.90;;;;;;5034715;28;20531;-79
2021/05/27 06:55:35;;;;;;;0.70;0.50;;;12.30;99.90;;;;;;5019561;28;20431;-79
2021/05/27 06:58:01;;;;;;;0.70;0.50;;;12.40;99.90;;;;;;5022614;28;20455;-79
2021/05/27 07:00:28;;;;;;;0.80;0.77;;;12.40;99.90;;;;;;5038448;28;20450;-79
2021/05/27 07:02:53;;;;;;;0.70;0.50;;;12.50;99.90;;;;;;5018317;28;20541;-79
2021/05/27 07:33:11;;;;;;;0.70;0.53;;;13.00;99.90;;;;;;5026853;28;20402;-79
2021/05/27 07:35:36;;;;;;;0.80;0.70;;;13.10;99.90;;;;;;5020458;28;20431;-79
2021/05/27 07:38:02;;;;;;;1.77;1.67;;;13.10;99.90;;;;;;5039657;28;20450;-79
2021/05/27 07:40:28;;;;;;;0.70;0.60;;;13.20;99.90;;;;;;5023016;28;20184;-79
2021/05/27 07:42:54;;;;;;;1.20;1.10;;;13.30;99.90;;;;;;5023454;28;20192;-79
2021/05/27 07:45:20;;;;;;;0.90;0.90;;;13.30;99.90;;;;;;5023320;28;20442;-79
2021/05/27 07:47:46;;;;;;;1.53;1.43;;;13.30;99.90;;;;;;5047281;28;20434;-79
2021/05/27 07:50:12;;;;;;;0.70;0.50;;;13.30;99.90;;;;;;5040274;28;20179;-79
2021/05/27 07:52:38;;;;;;;1.80;1.07;;;13.30;99.90;;;;;;5059667;28;20421;-79
2021/05/27 07:55:05;;;;;;;1.20;1.10;;;13.40;99.90;;;;;;5057724;28;20419;-79
2021/05/27 07:57:31;;;;;;;0.70;0.50;;;13.40;99.90;;;;;;5044509;28;20291;-79
2021/05/27 07:59:56;;;;;;;0.70;0.50;;;13.40;99.90;;;;;;5031502;28;20524;-76
2021/05/27 08:02:22;;;;;;;0.70;0.50;;;13.40;99.90;;;;;;5009579;28;20179;-76
2021/05/27 08:04:48;;;;;;;0.80;0.70;;;13.40;99.90;;;;;;5010565;28;20180;-77
2021/05/27 08:07:14;;;;;;;0.70;0.50;;;13.40;99.90;;;;;;5010664;28;20269;-77
2021/05/27 08:09:40;;;;;;;0.70;0.50;;;13.30;99.90;;;;;;5026154;28;20469;-76
2021/05/27 08:12:06;;;;;;;0.83;0.70;;;13.30;99.90;;;;;;5010688;28;20194;-76
2021/05/27 08:14:32;;;;;;;0.70;0.50;;;13.30;99.90;;;;;;5011385;28;20175;-77
2021/05/27 08:16:58;;;;;;;0.70;0.50;;;13.20;99.90;;;;;;5011168;28;20453;-77
2021/05/27 08:19:24;;;;;;;0.70;0.50;;;13.10;99.90;;;;;;5013457;28;20399;-78
2021/05/27 08:21:50;;;;;;;0.70;0.50;;;13.10;99.90;;;;;;5029550;28;20178;-78
2021/05/27 08:24:15;;;;;;;0.70;0.50;;;13.00;99.90;;;;;;5031204;28;20902;-78
2021/05/27 08:26:41;;;;;;;2.03;1.93;;;13.00;99.90;;;;;;5011363;28;20445;-78
2021/05/27 08:29:06;;;;;;;0.70;0.50;;;13.10;99.90;;;;;;5014153;28;20649;-78
2021/05/27 08:31:32;;;;;;;0.70;0.50;;;13.20;99.90;;;;;;5011515;28;20642;-78
2021/05/27 08:33:58;;;;;;;0.70;0.50;;;13.20;99.90;;;;;;5015605;28;20630;-78
2021/05/27 08:36:24;;;;;;;0.70;0.50;;;13.20;99.90;;;;;;5016186;28;20274;-78
2021/05/27 08:38:49;;;;;;;0.70;0.50;;;13.40;99.90;;;;;;5016715;28;20176;-78
2021/05/27 08:41:18;;;;;;;0.70;0.50;;;13.40;99.90;;;;;;5015327;28;20172;-78
2021/05/27 08:43:47;;;;;;;0.70;0.60;;;13.50;99.90;;;;;;5029329;28;20242;-78
2021/05/27 08:46:13;;;;;;;0.70;0.50;;;13.50;99.90;;;;;;5016956;28;20427;-78
2021/05/27 08:48:43;;;;;;;0.70;0.47;;;13.40;99.90;;;;;;5032135;28;20439;-78
2021/05/27 08:51:11;;;;;;;0.70;0.50;;;13.50;99.90;;;;;;5016679;28;20699;-75
2021/05/27 08:53:37;;;;;;;0.70;0.50;;;13.60;99.90;;;;;;5014239;28;20407;-76
2021/05/27 08:56:03;;;;;;;0.70;0.50;;;13.50;99.90;;;;;;5013942;28;20415;-76
2021/05/27 08:58:28;;;;;;;0.70;0.50;;;13.60;99.90;;;;;;5013987;28;20226;-76
2021/05/27 09:00:55;;;;;;;0.70;0.50;;;13.70;99.90;;;;;;5013792;28;20410;-75
2021/05/27 09:03:21;;;;;;;0.70;0.50;;;13.80;99.90;;;;;;5029645;28;20199;-78
2021/05/27 09:05:58;;;;;;;0.70;0.50;;;13.90;99.90;;;;;;5030734;28;20826;-78
2021/05/27 09:08:30;;;;;;;0.70;0.50;;;14.00;99.90;;;;;;5029637;28;20955;-77
2021/05/27 09:11:04;;;;;;;0.70;0.50;;;14.00;99.90;;;;;;5014830;28;20407;-77
2021/05/27 09:13:30;;;;;;;0.70;0.50;;;14.10;99.90;;;;;;5030462;28;20474;-79
2021/05/27 09:16:08;;;;;;;0.70;0.50;;;14.00;99.90;;;;;;5032210;28;20461;-78
2021/05/27 09:18:38;;;;;;;0.70;0.50;;;14.10;99.90;;;;;;5031257;28;20912;-78
2021/05/27 09:21:06;;;;;;;0.70;0.50;;;14.10;99.90;;;;;;5030473;28;20410;-77
2021/05/27 09:23:33;;;;;;;0.70;0.50;;;14.20;99.90;;;;;;5032560;28;20554;-79
2021/05/27 09:26:11;;;;;;;0.70;0.50;;;14.10;99.90;;;;;;5029456;28;20412;-80
2021/05/27 09:28:37;;;;;;;0.70;0.53;;;14.20;99.90;;;;;;5029420;28;20422;-79
2021/05/27 09:31:06;;;;;;;0.70;0.50;;;14.10;99.90;;;;;;5029240;28;20418;-79
2021/05/27 09:33:33;;;;;;;0.70;0.50;;;14.10;99.90;;;;;;5014350;28;20219;-81
2021/05/27 09:35:59;;;;;;;0.70;0.50;;;13.90;99.90;;;;;;5014019;28;20423;-80
2021/05/27 09:38:29;;;;;;;0.70;0.50;;;13.80;99.90;;;;;;5029048;28;20892;-80
2021/05/27 09:40:55;;;;;;;1.30;1.00;;;13.80;99.90;;;;;;5013827;28;20508;-80
2021/05/27 09:43:23;;;;;;;0.70;0.50;;;13.70;99.90;;;;;;5014852;28;20447;-78
2021/05/27 09:46:09;;;;;;;0.70;0.50;;;13.60;99.90;;;;;;5016160;28;20183;-78
2021/05/27 09:48:36;;;;;;;0.90;0.60;;;13.50;99.90;;;;;;5016953;28;20481;-78
2021/05/27 09:51:02;;;;;;;0.70;0.50;;;13.40;99.90;;;;;;5015913;28;20917;-80
2021/05/27 09:53:31;;;;;;;0.70;0.50;;;13.30;99.90;;;;;;5029064;28;20422;-80
2021/05/27 09:55:58;;;;;;;1.10;1.03;;;13.30;99.90;;;;;;5029635;28;20419;-78
2021/05/27 09:58:25;;;;;;;0.70;0.50;;;13.30;99.90;;;;;;5018191;28;20423;-80
2021/05/27 10:00:51;;;;;;;0.70;0.50;;;13.20;99.90;;;;;;5019741;28;20408;-83
2021/05/27 10:03:21;;;;;;;1.13;1.03;;;13.20;99.90;;;;;;5031868;28;20453;-82
2021/05/27 10:05:47;;;;;;;0.70;0.50;;;13.10;99.90;;;;;;5032187;28;20426;-84
2021/05/27 10:08:13;;;;;;;0.70;0.50;;;13.20;99.90;;;;;;5048833;28;20950;-83
2021/05/27 10:10:41;;;;;;;0.70;0.50;;;13.30;99.90;;;;;;5048044;28;20509;-83
2021/05/27 10:13:07;;;;;;;0.70;0.50;;;13.30;99.90;;;;;;5030968;28;20433;-84
2021/05/27 10:15:34;;;;;;;0.70;0.50;;;13.30;99.90;;;;;;5012151;28;20429;-83
2021/05/27 10:18:03;;;;;;;0.80;0.70;;;13.10;99.90;;;;;;5012263;28;20446;-83
2021/05/27 10:20:29;;;;;;;0.70;0.50;;;13.20;99.90;;;;;;5011993;28;20419;-83
2021/05/27 10:22:58;;;;;;;0.70;0.50;;;13.20;99.90;;;;;;5028013;28;20983;-83
2021/05/27 10:25:26;;;;;;;0.70;0.60;;;13.30;99.90;;;;;;5013191;28;20400;-81
2021/05/27 10:27:54;;;;;;;0.70;0.50;;;13.30;99.90;;;;;;5028304;28;20459;-82
2021/05/27 10:30:22;;;;;;;0.90;0.80;;;13.20;99.90;;;;;;5028226;28;20486;-82
2021/05/27 10:32:55;;;;;;;0.70;0.50;;;13.10;99.90;;;;;;5028643;28;20458;-83
2021/05/27 10:35:20;;;;;;;0.70;0.50;;;13.20;99.90;;;;;;5015032;28;20463;-83
2021/05/27 10:37:52;;;;;;;0.70;0.50;;;13.40;99.90;;;;;;5011952;28;20865;-82
2021/05/27 10:40:18;;;;;;;1.43;0.83;;;13.50;99.90;;;;;;5027600;28;20175;-83
2021/05/27 10:42:56;;;;;;;0.70;0.50;;;13.60;99.90;;;;;;5026434;28;20419;-81
2021/05/27 10:45:23;;;;;;;0.70;0.50;;;13.70;99.90;;;;;;5029466;28;20222;-83
2021/05/27 10:48:17;;;;;;;0.90;0.80;;;13.70;99.90;;;;;;5014213;28;20917;-82
2021/05/27 10:51:12;;;;;;;0.70;0.50;;;13.70;99.90;;;;;;5012822;28;20407;-83
2021/05/27 10:56:35;;;;;;;0.70;0.50;;;13.70;99.90;;;;;;5012367;28;20461;-83
2021/05/27 10:59:00;;;;;;;0.70;0.50;;;13.80;99.90;;;;;;4997025;28;20180;-83
2021/05/27 11:01:33;;;;;;;0.70;0.60;;;13.80;99.90;;;;;;5012730;28;20403;-84
2021/05/27 11:04:21;;;;;;;0.70;0.50;;;13.80;99.90;;;;;;5028392;28;20198;-84
2021/05/27 11:06:49;;;;;;;0.70;0.50;;;13.70;99.90;;;;;;5027986;28;20435;-84
2021/05/27 11:09:19;;;;;;;0.70;0.50;;;13.60;99.90;;;;;;5029697;28;20490;-82
2021/05/27 11:12:08;;;;;;;0.80;0.70;;;13.50;99.90;;;;;;5028811;28;21152;-84
2021/05/27 11:14:43;;;;;;;0.70;0.50;;;13.50;99.90;;;;;;5026685;28;20419;-82
2021/05/27 11:17:12;;;;;;;0.70;0.50;;;13.40;99.90;;;;;;5012998;28;20442;-81
2021/05/27 11:25:07;;;;;;;0.70;0.50;;;13.50;99.90;;;;;;5012362;28;20426;-82
2021/05/27 11:27:38;;;;;;;0.70;0.50;;;13.40;99.90;;;;;;5014015;28;20435;-80
2021/05/27 11:30:14;;;;;;;0.70;0.50;;;13.50;99.90;;;;;;5016282;28;20411;-81
2021/05/27 11:32:39;;;;;;;0.70;0.50;;;13.70;99.90;;;;;;5031569;28;20419;-80
2021/05/27 11:35:05;;;;;;;0.70;0.50;;;13.90;99.90;;;;;;5030495;28;20415;-81
2021/05/27 11:37:35;;;;;;;0.70;0.50;;;14.00;99.90;;;;;;5019549;28;20553;-81
2021/05/27 11:40:03;;;;;;;0.70;0.50;;;14.10;99.90;;;;;;5035061;28;20437;-81
2021/05/27 11:42:29;;;;;;;0.70;0.70;;;14.20;99.90;;;;;;5035825;28;20420;-81
2021/05/27 11:45:02;;;;;;;0.90;0.90;;;14.30;99.90;;;;;;5036226;28;20463;-81
2021/05/27 11:47:28;;;;;;;0.70;0.60;;;14.40;99.90;;;;;;5033799;28;20473;-82
2021/05/27 11:50:08;;;;;;;0.70;0.50;;;14.50;99.90;;;;;;5032482;28;20562;-82
2021/05/27 11:52:34;;;;;;;0.70;0.50;;;14.40;99.90;;;;;;5024789;28;20419;-81
2021/05/27 11:55:02;;;;;;;0.70;0.50;;;14.60;99.90;;;;;;5036204;28;20908;-82
2021/05/27 11:57:40;;;;;;;0.70;0.50;;;14.50;99.90;;;;;;5028103;28;20456;-84
2021/05/27 12:00:07;;;;;;;0.70;0.50;;;14.50;99.90;;;;;;5011969;28;20418;-84
2021/05/27 12:02:45;;;;;;;0.70;0.50;;;14.60;99.90;;;;;;5020317;28;20493;-85
2021/05/27 12:05:28;;;;;;;0.70;0.50;;;14.60;99.90;;;;;;5015391;28;20419;-83
2021/05/27 12:07:58;;;;;;;0.70;0.50;;;14.60;99.90;;;;;;5005017;28;20535;-84
2021/05/27 12:10:24;;;;;;;1.37;1.27;;;14.60;99.90;;;;;;5018516;28;20507;-83
2021/05/27 12:12:50;;;;;;;0.70;0.50;;;14.80;99.90;;;;;;5000742;28;20416;-83
2021/05/27 12:15:17;;;;;;;0.70;0.50;;;14.70;99.90;;;;;;5007062;28;20901;-83
2021/05/27 12:17:45;;;;;;;0.70;0.50;;;14.60;99.90;;;;;;5024456;28;20440;-84
2021/05/27 12:20:27;;;;;;;0.80;0.80;;;14.60;99.90;;;;;;5005927;28;20815;-84
2021/05/27 12:22:59;;;;;;;0.70;0.50;;;14.50;99.90;;;;;;5007003;28;20960;-84
2021/05/27 12:25:28;;;;;;;0.70;0.50;;;14.30;99.90;;;;;;5017283;28;20420;-84
2021/05/27 12:28:00;;;;;;;0.70;0.60;;;14.00;99.90;;;;;;5015938;28;20963;-84
2021/05/27 12:30:48;;;;;;;0.80;0.80;;;14.20;99.90;;;;;;5019326;28;20440;-84
2021/05/27 12:33:19;;;;;;;0.70;0.50;;;14.20;99.90;;;;;;5017235;28;20475;-85
2021/05/27 12:35:49;;;;;;;0.70;0.50;;;14.40;99.90;;;;;;4999399;28;20454;-82
2021/05/27 12:38:26;;;;;;;0.70;0.50;;;14.50;99.90;;;;;;5020712;28;20442;-81
2021/05/27 12:41:33;;;;;;;0.90;0.73;;;14.60;99.90;;;;;;5026594;28;20933;-82
2021/05/27 12:44:29;;;;;;;0.70;0.50;;;14.70;99.90;;;;;;5011076;28;20471;-83
2021/05/27 12:47:11;;;;;;;0.80;0.60;;;14.80;99.90;;;;;;5037854;28;20454;-81
2021/05/27 12:52:42;;;;;;;0.70;0.50;;;14.60;99.90;;;;;;5022982;28;20888;-81
2021/05/27 12:55:33;;;;;;;0.70;0.50;;;14.40;99.90;;;;;;5039337;28;20795;-82
2021/05/27 12:58:00;;;;;;;0.70;0.50;;;14.40;99.90;;;;;;5035446;28;20439;-85
2021/05/27 13:00:50;;;;;;;0.70;0.50;;;14.20;99.90;;;;;;5031635;28;20429;-85
2021/05/27 13:03:20;;;;;;;0.70;0.50;;;14.40;99.90;;;;;;5032598;28;20964;-85
2021/05/27 13:06:00;;;;;;;0.70;0.50;;;14.50;99.90;;;;;;5032773;28;20423;-82
2021/05/27 13:08:30;;;;;;;0.70;0.50;;;14.70;99.90;;;;;;5038123;28;20505;-82
2021/05/27 13:10:56;;;;;;;0.70;0.50;;;14.80;99.90;;;;;;5032875;28;20430;-85
2021/05/27 13:13:33;;;;;;;0.70;0.50;;;14.70;99.90;;;;;;4998541;28;20511;-84
2021/05/27 13:16:01;;;;;;;0.70;0.50;;;14.90;99.90;;;;;;5012120;28;20169;-84
2021/05/27 13:18:26;;;;;;;0.70;0.50;;;15.00;99.90;;;;;;4995579;28;20416;-83
2021/05/27 13:21:03;;;;;;;0.70;0.50;;;15.20;99.90;;;;;;4994725;28;20447;-85
2021/05/27 13:23:39;;;;;;;0.80;0.77;;;15.10;99.90;;;;;;5016130;28;20556;-84
2021/05/27 13:26:20;;;;;;;0.70;0.50;;;15.20;99.90;;;;;;5031647;28;20415;-84
2021/05/27 13:29:05;;;;;;;0.70;0.50;;;15.30;99.90;;;;;;5035867;28;20407;-81
2021/05/27 13:31:41;;;;;;;0.70;0.50;;;15.20;99.90;;;;;;5037171;28;20410;-82
2021/05/27 13:34:07;;;;;;;0.70;0.50;;;15.30;99.90;;;;;;5037865;28;20429;-82
2021/05/27 13:36:44;;;;;;;0.70;0.50;;;15.20;99.90;;;;;;5022414;28;20427;-82
2021/05/27 13:39:18;;;;;;;0.70;0.50;;;15.20;99.90;;;;;;5038247;28;20180;-81
2021/05/27 13:41:44;;;;;;;0.70;0.50;;;15.50;99.90;;;;;;5037457;28;20415;-81